sensor_id;sensor_type;location;lat;lon;timestamp;P1;durP1;ratioP1;P2;durP2;ratioP2
462;SDS011;218;51.902;9.542;2022-07-29T00:00:28;2.63;;;2.30;;
462;SDS011;218;51.902;9.542;2022-07-29T00:02:55;2.50;;;2.30;;
462;SDS011;218;51.902;9.542;2022-07-29T00:05:22;2.50;;;2.30;;
462;SDS011;218;51.902;9.542;2022-07-29T00:07:49;2.83;;;2.60;;
462;SDS011;218;51.902;9.542;2022-07-29T00:10:16;3.27;;;2.57;;
462;SDS011;218;51.902;9.542;2022-07-29T00:12:43;2.63;;;2.43;;
462;SDS011;218;51.902;9.542;2022-07-29T00:15:12;3.10;;;2.67;;
462;SDS011;218;51.902;9.542;2022-07-29T00:17:39;3.27;;;2.40;;
462;SDS011;218;51.902;9.542;2022-07-29T00:20:07;5.10;;;2.70;;
462;SDS011;218;51.902;9.542;2022-07-29T00:22:36;4.60;;;2.93;;
462;SDS011;218;51.902;9.542;2022-07-29T00:25:04;3.10;;;2.80;;
462;SDS011;218;51.902;9.542;2022-07-29T00:27:32;2.53;;;2.30;;
462;SDS011;218;51.902;9.542;2022-07-29T00:29:59;4.20;;;2.80;;
462;SDS011;218;51.902;9.542;2022-07-29T00:32:27;3.50;;;3.20;;
462;SDS011;218;51.902;9.542;2022-07-29T00:34:54;2.83;;;2.57;;
462;SDS011;218;51.902;9.542;2022-07-29T00:37:39;4.70;;;3.10;;
462;SDS011;218;51.902;9.542;2022-07-29T00:40:07;3.17;;;2.87;;
462;SDS011;218;51.902;9.542;2022-07-29T00:42:41;3.10;;;2.63;;
462;SDS011;218;51.902;9.542;2022-07-29T00:45:09;3.60;;;2.83;;
462;SDS011;218;51.902;9.542;2022-07-29T00:47:37;2.50;;;2.40;;
462;SDS011;218;51.902;9.542;2022-07-29T00:50:05;2.80;;;2.60;;
462;SDS011;218;51.902;9.542;2022-07-29T00:52:36;3.43;;;2.80;;
462;SDS011;218;51.902;9.542;2022-07-29T00:55:10;4.60;;;2.57;;
462;SDS011;218;51.902;9.542;2022-07-29T00:57:41;3.13;;;2.63;;
462;SDS011;218;51.902;9.542;2022-07-29T01:00:10;3.30;;;3.00;;
462;SDS011;218;51.902;9.542;2022-07-29T01:02:40;3.53;;;3.03;;
462;SDS011;218;51.902;9.542;2022-07-29T01:05:07;7.20;;;2.70;;
462;SDS011;218;51.902;9.542;2022-07-29T01:07:34;2.90;;;2.70;;
462;SDS011;218;51.902;9.542;2022-07-29T01:10:03;2.90;;;2.67;;
462;SDS011;218;51.902;9.542;2022-07-29T01:12:32;3.00;;;2.77;;
462;SDS011;218;51.902;9.542;2022-07-29T01:15:02;3.00;;;2.60;;
462;SDS011;218;51.902;9.542;2022-07-29T01:17:32;3.40;;;3.03;;
462;SDS011;218;51.902;9.542;2022-07-29T01:20:05;4.83;;;3.10;;
462;SDS011;218;51.902;9.542;2022-07-29T01:22:42;2.80;;;2.60;;
462;SDS011;218;51.902;9.542;2022-07-29T01:25:42;3.40;;;2.70;;
462;SDS011;218;51.902;9.542;2022-07-29T01:31:24;3.87;;;2.90;;
462;SDS011;218;51.902;9.542;2022-07-29T01:33:58;3.10;;;2.90;;
462;SDS011;218;51.902;9.542;2022-07-29T01:36:31;4.00;;;2.73;;
462;SDS011;218;51.902;9.542;2022-07-29T01:39:04;5.73;;;3.33;;
462;SDS011;218;51.902;9.542;2022-07-29T01:41:34;3.80;;;2.97;;
462;SDS011;218;51.902;9.542;2022-07-29T01:44:07;3.30;;;3.00;;
462;SDS011;218;51.902;9.542;2022-07-29T01:46:44;3.27;;;2.67;;
462;SDS011;218;51.902;9.542;2022-07-29T01:49:16;2.87;;;2.67;;
462;SDS011;218;51.902;9.542;2022-07-29T01:51:48;3.23;;;2.80;;
462;SDS011;218;51.902;9.542;2022-07-29T01:54:18;3.77;;;3.07;;
462;SDS011;218;51.902;9.542;2022-07-29T01:56:51;2.80;;;2.70;;
462;SDS011;218;51.902;9.542;2022-07-29T01:59:21;2.93;;;2.73;;
462;SDS011;218;51.902;9.542;2022-07-29T02:01:50;3.00;;;2.80;;
462;SDS011;218;51.902;9.542;2022-07-29T02:04:20;2.90;;;2.70;;
462;SDS011;218;51.902;9.542;2022-07-29T02:06:49;3.60;;;3.30;;
462;SDS011;218;51.902;9.542;2022-07-29T02:09:19;4.00;;;2.97;;
462;SDS011;218;51.902;9.542;2022-07-29T02:11:49;3.63;;;3.00;;
462;SDS011;218;51.902;9.542;2022-07-29T02:14:21;3.03;;;2.70;;
462;SDS011;218;51.902;9.542;2022-07-29T02:16:50;3.10;;;2.67;;
462;SDS011;218;51.902;9.542;2022-07-29T02:19:21;3.00;;;2.80;;
462;SDS011;218;51.902;9.542;2022-07-29T02:21:50;3.03;;;2.60;;
462;SDS011;218;51.902;9.542;2022-07-29T02:24:19;3.10;;;2.90;;
462;SDS011;218;51.902;9.542;2022-07-29T02:26:49;2.90;;;2.70;;
462;SDS011;218;51.902;9.542;2022-07-29T02:29:18;3.20;;;3.00;;
462;SDS011;218;51.902;9.542;2022-07-29T02:31:49;3.23;;;3.03;;
462;SDS011;218;51.902;9.542;2022-07-29T02:34:18;4.90;;;3.10;;
462;SDS011;218;51.902;9.542;2022-07-29T02:36:47;3.10;;;2.90;;
462;SDS011;218;51.902;9.542;2022-07-29T02:39:15;3.30;;;3.00;;
462;SDS011;218;51.902;9.542;2022-07-29T02:41:44;6.13;;;3.67;;
462;SDS011;218;51.902;9.542;2022-07-29T02:44:14;4.50;;;3.47;;
462;SDS011;218;51.902;9.542;2022-07-29T02:46:45;3.00;;;2.80;;
462;SDS011;218;51.902;9.542;2022-07-29T02:49:16;3.50;;;3.20;;
462;SDS011;218;51.902;9.542;2022-07-29T02:51:57;3.57;;;3.30;;
462;SDS011;218;51.902;9.542;2022-07-29T02:54:29;3.67;;;3.37;;
462;SDS011;218;51.902;9.542;2022-07-29T02:57:01;3.83;;;3.50;;
462;SDS011;218;51.902;9.542;2022-07-29T02:59:36;3.43;;;3.10;;
462;SDS011;218;51.902;9.542;2022-07-29T03:02:06;3.00;;;2.80;;
462;SDS011;218;51.902;9.542;2022-07-29T03:04:34;3.47;;;3.13;;
462;SDS011;218;51.902;9.542;2022-07-29T03:07:04;5.80;;;2.80;;
462;SDS011;218;51.902;9.542;2022-07-29T03:09:32;4.13;;;3.40;;
462;SDS011;218;51.902;9.542;2022-07-29T03:12:00;2.93;;;2.73;;
462;SDS011;218;51.902;9.542;2022-07-29T03:14:27;3.20;;;2.80;;
462;SDS011;218;51.902;9.542;2022-07-29T03:16:56;3.10;;;2.80;;
462;SDS011;218;51.902;9.542;2022-07-29T03:19:26;3.27;;;2.97;;
462;SDS011;218;51.902;9.542;2022-07-29T03:21:54;5.10;;;3.20;;
462;SDS011;218;51.902;9.542;2022-07-29T03:24:29;3.47;;;3.17;;
462;SDS011;218;51.902;9.542;2022-07-29T03:26:58;3.20;;;3.00;;
462;SDS011;218;51.902;9.542;2022-07-29T03:29:26;3.73;;;3.07;;
462;SDS011;218;51.902;9.542;2022-07-29T03:31:53;3.00;;;2.80;;
462;SDS011;218;51.902;9.542;2022-07-29T03:34:20;2.80;;;2.47;;
462;SDS011;218;51.902;9.542;2022-07-29T03:36:49;3.40;;;3.20;;
462;SDS011;218;51.902;9.542;2022-07-29T03:39:17;2.80;;;2.70;;
462;SDS011;218;51.902;9.542;2022-07-29T03:41:47;3.40;;;3.10;;
462;SDS011;218;51.902;9.542;2022-07-29T03:44:16;4.53;;;3.07;;
462;SDS011;218;51.902;9.542;2022-07-29T03:46:45;3.30;;;3.00;;
462;SDS011;218;51.902;9.542;2022-07-29T03:49:15;3.20;;;3.00;;
462;SDS011;218;51.902;9.542;2022-07-29T03:51:45;3.33;;;2.73;;
462;SDS011;218;51.902;9.542;2022-07-29T03:54:15;3.00;;;2.80;;
462;SDS011;218;51.902;9.542;2022-07-29T03:56:42;2.80;;;2.67;;
462;SDS011;218;51.902;9.542;2022-07-29T03:59:12;3.60;;;2.90;;
462;SDS011;218;51.902;9.542;2022-07-29T04:01:41;3.80;;;3.50;;
462;SDS011;218;51.902;9.542;2022-07-29T04:04:09;3.00;;;2.60;;
462;SDS011;218;51.902;9.542;2022-07-29T04:06:37;3.37;;;3.17;;
462;SDS011;218;51.902;9.542;2022-07-29T04:09:06;3.00;;;2.80;;
462;SDS011;218;51.902;9.542;2022-07-29T04:11:35;4.00;;;2.87;;
462;SDS011;218;51.902;9.542;2022-07-29T04:14:03;3.30;;;3.10;;
462;SDS011;218;51.902;9.542;2022-07-29T04:16:31;3.77;;;3.03;;
462;SDS011;218;51.902;9.542;2022-07-29T04:18:59;3.33;;;3.13;;
462;SDS011;218;51.902;9.542;2022-07-29T04:21:26;2.77;;;2.53;;
462;SDS011;218;51.902;9.542;2022-07-29T04:23:53;3.50;;;3.00;;
462;SDS011;218;51.902;9.542;2022-07-29T04:26:20;2.87;;;2.73;;
462;SDS011;218;51.902;9.542;2022-07-29T04:28:49;5.17;;;2.70;;
462;SDS011;218;51.902;9.542;2022-07-29T04:31:16;3.23;;;2.93;;
462;SDS011;218;51.902;9.542;2022-07-29T04:33:43;3.03;;;2.80;;
462;SDS011;218;51.902;9.542;2022-07-29T04:36:10;2.73;;;2.63;;
462;SDS011;218;51.902;9.542;2022-07-29T04:38:39;3.10;;;2.90;;
462;SDS011;218;51.902;9.542;2022-07-29T04:41:06;3.43;;;3.17;;
462;SDS011;218;51.902;9.542;2022-07-29T04:43:33;2.77;;;2.67;;
462;SDS011;218;51.902;9.542;2022-07-29T04:46:02;3.10;;;2.90;;
462;SDS011;218;51.902;9.542;2022-07-29T04:48:30;4.10;;;3.33;;
462;SDS011;218;51.902;9.542;2022-07-29T04:50:57;5.00;;;2.70;;
462;SDS011;218;51.902;9.542;2022-07-29T04:53:24;3.60;;;3.40;;
462;SDS011;218;51.902;9.542;2022-07-29T04:55:51;3.20;;;2.87;;
462;SDS011;218;51.902;9.542;2022-07-29T04:58:18;2.73;;;2.53;;
462;SDS011;218;51.902;9.542;2022-07-29T05:00:49;3.60;;;3.30;;
462;SDS011;218;51.902;9.542;2022-07-29T05:03:18;2.97;;;2.80;;
462;SDS011;218;51.902;9.542;2022-07-29T05:05:45;3.10;;;2.80;;
462;SDS011;218;51.902;9.542;2022-07-29T05:08:12;3.63;;;3.33;;
462;SDS011;218;51.902;9.542;2022-07-29T05:10:39;3.53;;;3.20;;
462;SDS011;218;51.902;9.542;2022-07-29T05:13:06;4.80;;;3.20;;
462;SDS011;218;51.902;9.542;2022-07-29T05:15:34;6.07;;;3.13;;
462;SDS011;218;51.902;9.542;2022-07-29T05:18:02;3.70;;;2.60;;
462;SDS011;218;51.902;9.542;2022-07-29T05:20:31;3.70;;;3.00;;
462;SDS011;218;51.902;9.542;2022-07-29T05:23:00;3.80;;;3.37;;
462;SDS011;218;51.902;9.542;2022-07-29T05:25:28;3.70;;;3.50;;
462;SDS011;218;51.902;9.542;2022-07-29T05:27:56;2.80;;;2.60;;
462;SDS011;218;51.902;9.542;2022-07-29T05:30:24;3.13;;;2.80;;
462;SDS011;218;51.902;9.542;2022-07-29T05:32:51;3.70;;;3.40;;
462;SDS011;218;51.902;9.542;2022-07-29T05:35:18;3.43;;;3.23;;
462;SDS011;218;51.902;9.542;2022-07-29T05:37:47;3.10;;;2.60;;
462;SDS011;218;51.902;9.542;2022-07-29T05:40:15;3.13;;;2.80;;
462;SDS011;218;51.902;9.542;2022-07-29T05:42:42;4.20;;;3.90;;
462;SDS011;218;51.902;9.542;2022-07-29T05:45:10;4.00;;;3.00;;
462;SDS011;218;51.902;9.542;2022-07-29T05:47:37;4.27;;;3.20;;
462;SDS011;218;51.902;9.542;2022-07-29T05:50:04;3.50;;;3.20;;
462;SDS011;218;51.902;9.542;2022-07-29T05:52:32;4.43;;;2.90;;
462;SDS011;218;51.902;9.542;2022-07-29T05:55:01;3.27;;;3.07;;
462;SDS011;218;51.902;9.542;2022-07-29T05:57:30;3.53;;;3.10;;
462;SDS011;218;51.902;9.542;2022-07-29T05:59:57;3.90;;;3.33;;
462;SDS011;218;51.902;9.542;2022-07-29T06:02:25;3.73;;;3.43;;
462;SDS011;218;51.902;9.542;2022-07-29T06:04:52;3.40;;;3.10;;
462;SDS011;218;51.902;9.542;2022-07-29T06:07:19;3.70;;;2.93;;
462;SDS011;218;51.902;9.542;2022-07-29T06:09:46;6.67;;;3.10;;
462;SDS011;218;51.902;9.542;2022-07-29T06:12:14;4.27;;;3.87;;
462;SDS011;218;51.902;9.542;2022-07-29T06:14:41;3.60;;;3.13;;
462;SDS011;218;51.902;9.542;2022-07-29T06:17:08;3.70;;;3.47;;
462;SDS011;218;51.902;9.542;2022-07-29T06:19:36;3.87;;;3.03;;
462;SDS011;218;51.902;9.542;2022-07-29T06:22:04;3.97;;;3.27;;
462;SDS011;218;51.902;9.542;2022-07-29T06:24:31;3.53;;;2.60;;
462;SDS011;218;51.902;9.542;2022-07-29T06:26:58;3.33;;;3.03;;
462;SDS011;218;51.902;9.542;2022-07-29T06:29:26;5.10;;;3.50;;
462;SDS011;218;51.902;9.542;2022-07-29T06:31:54;5.07;;;3.97;;
462;SDS011;218;51.902;9.542;2022-07-29T06:34:21;5.53;;;3.70;;
462;SDS011;218;51.902;9.542;2022-07-29T06:36:48;4.17;;;3.23;;
462;SDS011;218;51.902;9.542;2022-07-29T06:39:16;3.77;;;3.10;;
462;SDS011;218;51.902;9.542;2022-07-29T06:41:45;8.00;;;3.20;;
462;SDS011;218;51.902;9.542;2022-07-29T06:44:13;4.20;;;3.60;;
462;SDS011;218;51.902;9.542;2022-07-29T06:46:42;4.53;;;3.97;;
462;SDS011;218;51.902;9.542;2022-07-29T06:49:10;4.33;;;2.90;;
462;SDS011;218;51.902;9.542;2022-07-29T06:51:37;5.87;;;3.03;;
462;SDS011;218;51.902;9.542;2022-07-29T06:54:05;7.37;;;3.27;;
462;SDS011;218;51.902;9.542;2022-07-29T06:56:32;5.63;;;3.73;;
462;SDS011;218;51.902;9.542;2022-07-29T06:59:02;5.63;;;2.90;;
462;SDS011;218;51.902;9.542;2022-07-29T07:01:29;3.50;;;3.20;;
462;SDS011;218;51.902;9.542;2022-07-29T07:03:58;3.33;;;3.03;;
462;SDS011;218;51.902;9.542;2022-07-29T07:06:25;4.27;;;3.50;;
462;SDS011;218;51.902;9.542;2022-07-29T07:08:52;6.03;;;3.10;;
462;SDS011;218;51.902;9.542;2022-07-29T07:11:19;3.40;;;3.10;;
462;SDS011;218;51.902;9.542;2022-07-29T07:13:47;3.43;;;2.53;;
462;SDS011;218;51.902;9.542;2022-07-29T07:16:16;4.37;;;2.90;;
462;SDS011;218;51.902;9.542;2022-07-29T07:18:43;3.17;;;2.93;;
462;SDS011;218;51.902;9.542;2022-07-29T07:21:12;3.17;;;2.87;;
462;SDS011;218;51.902;9.542;2022-07-29T07:23:39;2.70;;;2.50;;
462;SDS011;218;51.902;9.542;2022-07-29T07:26:06;3.37;;;2.80;;
462;SDS011;218;51.902;9.542;2022-07-29T07:28:34;4.97;;;3.10;;
462;SDS011;218;51.902;9.542;2022-07-29T07:31:01;5.10;;;2.50;;
462;SDS011;218;51.902;9.542;2022-07-29T07:33:28;4.57;;;2.60;;
462;SDS011;218;51.902;9.542;2022-07-29T07:35:55;3.63;;;3.20;;
462;SDS011;218;51.902;9.542;2022-07-29T07:38:23;5.10;;;3.30;;
462;SDS011;218;51.902;9.542;2022-07-29T07:40:51;2.57;;;2.37;;
462;SDS011;218;51.902;9.542;2022-07-29T07:43:18;3.27;;;2.70;;
462;SDS011;218;51.902;9.542;2022-07-29T07:45:45;2.37;;;2.27;;
462;SDS011;218;51.902;9.542;2022-07-29T07:48:12;2.77;;;2.57;;
462;SDS011;218;51.902;9.542;2022-07-29T07:50:50;3.73;;;2.53;;
462;SDS011;218;51.902;9.542;2022-07-29T07:53:17;5.67;;;2.60;;
462;SDS011;218;51.902;9.542;2022-07-29T07:55:46;4.30;;;2.73;;
462;SDS011;218;51.902;9.542;2022-07-29T07:58:13;4.10;;;3.03;;
462;SDS011;218;51.902;9.542;2022-07-29T08:00:40;6.93;;;3.47;;
462;SDS011;218;51.902;9.542;2022-07-29T08:03:08;3.00;;;2.70;;
462;SDS011;218;51.902;9.542;2022-07-29T08:05:37;3.40;;;3.10;;
462;SDS011;218;51.902;9.542;2022-07-29T08:08:07;2.93;;;2.63;;
462;SDS011;218;51.902;9.542;2022-07-29T08:10:34;3.50;;;3.20;;
462;SDS011;218;51.902;9.542;2022-07-29T08:13:17;3.00;;;2.70;;
462;SDS011;218;51.902;9.542;2022-07-29T08:15:45;4.50;;;2.90;;
462;SDS011;218;51.902;9.542;2022-07-29T08:18:13;3.37;;;2.70;;
462;SDS011;218;51.902;9.542;2022-07-29T08:20:40;4.57;;;3.23;;
462;SDS011;218;51.902;9.542;2022-07-29T08:23:07;2.77;;;2.57;;
462;SDS011;218;51.902;9.542;2022-07-29T08:25:36;3.27;;;2.97;;
462;SDS011;218;51.902;9.542;2022-07-29T08:28:04;3.87;;;2.70;;
462;SDS011;218;51.902;9.542;2022-07-29T08:30:33;4.60;;;2.90;;
462;SDS011;218;51.902;9.542;2022-07-29T08:33:00;3.27;;;2.30;;
462;SDS011;218;51.902;9.542;2022-07-29T08:35:28;3.07;;;2.80;;
462;SDS011;218;51.902;9.542;2022-07-29T08:37:55;3.80;;;3.10;;
462;SDS011;218;51.902;9.542;2022-07-29T08:40:23;2.53;;;2.33;;
462;SDS011;218;51.902;9.542;2022-07-29T08:42:51;3.17;;;2.80;;
462;SDS011;218;51.902;9.542;2022-07-29T08:45:18;6.47;;;2.63;;
462;SDS011;218;51.902;9.542;2022-07-29T08:47:47;3.70;;;3.00;;
462;SDS011;218;51.902;9.542;2022-07-29T08:50:14;4.23;;;2.50;;
462;SDS011;218;51.902;9.542;2022-07-29T08:52:41;2.80;;;2.40;;
462;SDS011;218;51.902;9.542;2022-07-29T08:55:10;3.17;;;2.87;;
462;SDS011;218;51.902;9.542;2022-07-29T08:57:40;3.40;;;2.73;;
462;SDS011;218;51.902;9.542;2022-07-29T09:00:08;3.00;;;2.53;;
462;SDS011;218;51.902;9.542;2022-07-29T09:02:39;3.77;;;3.47;;
462;SDS011;218;51.902;9.542;2022-07-29T09:05:09;3.10;;;2.80;;
462;SDS011;218;51.902;9.542;2022-07-29T09:07:36;3.93;;;3.00;;
462;SDS011;218;51.902;9.542;2022-07-29T09:10:07;2.73;;;2.53;;
462;SDS011;218;51.902;9.542;2022-07-29T09:12:35;3.00;;;2.70;;
462;SDS011;218;51.902;9.542;2022-07-29T09:15:03;3.30;;;2.80;;
462;SDS011;218;51.902;9.542;2022-07-29T09:17:39;4.43;;;2.53;;
462;SDS011;218;51.902;9.542;2022-07-29T09:20:09;3.63;;;2.87;;
462;SDS011;218;51.902;9.542;2022-07-29T09:22:39;3.23;;;2.93;;
462;SDS011;218;51.902;9.542;2022-07-29T09:25:07;3.33;;;2.80;;
462;SDS011;218;51.902;9.542;2022-07-29T09:27:34;3.27;;;2.60;;
462;SDS011;218;51.902;9.542;2022-07-29T09:30:02;2.93;;;2.27;;
462;SDS011;218;51.902;9.542;2022-07-29T09:32:31;4.10;;;2.63;;
462;SDS011;218;51.902;9.542;2022-07-29T09:35:16;2.77;;;2.40;;
462;SDS011;218;51.902;9.542;2022-07-29T09:37:44;4.87;;;2.83;;
462;SDS011;218;51.902;9.542;2022-07-29T09:40:13;3.70;;;2.77;;
462;SDS011;218;51.902;9.542;2022-07-29T09:42:42;5.37;;;2.67;;
462;SDS011;218;51.902;9.542;2022-07-29T09:45:09;4.07;;;2.70;;
462;SDS011;218;51.902;9.542;2022-07-29T09:47:41;4.67;;;3.07;;
462;SDS011;218;51.902;9.542;2022-07-29T09:50:12;3.57;;;2.57;;
462;SDS011;218;51.902;9.542;2022-07-29T09:52:45;6.50;;;2.97;;
462;SDS011;218;51.902;9.542;2022-07-29T09:55:14;4.60;;;2.80;;
462;SDS011;218;51.902;9.542;2022-07-29T09:57:42;4.00;;;2.50;;
462;SDS011;218;51.902;9.542;2022-07-29T10:00:10;6.73;;;3.30;;
462;SDS011;218;51.902;9.542;2022-07-29T10:02:40;3.70;;;2.77;;
462;SDS011;218;51.902;9.542;2022-07-29T10:05:16;3.10;;;2.37;;
462;SDS011;218;51.902;9.542;2022-07-29T10:07:47;3.53;;;2.50;;
462;SDS011;218;51.902;9.542;2022-07-29T10:10:20;2.73;;;2.50;;
462;SDS011;218;51.902;9.542;2022-07-29T10:12:49;3.33;;;2.57;;
462;SDS011;218;51.902;9.542;2022-07-29T10:15:18;4.97;;;3.30;;
462;SDS011;218;51.902;9.542;2022-07-29T10:17:45;3.73;;;2.37;;
462;SDS011;218;51.902;9.542;2022-07-29T10:20:14;4.50;;;2.87;;
462;SDS011;218;51.902;9.542;2022-07-29T10:22:42;2.73;;;2.50;;
462;SDS011;218;51.902;9.542;2022-07-29T10:25:13;4.17;;;2.70;;
462;SDS011;218;51.902;9.542;2022-07-29T10:27:41;5.37;;;3.17;;
462;SDS011;218;51.902;9.542;2022-07-29T10:30:09;3.10;;;2.83;;
462;SDS011;218;51.902;9.542;2022-07-29T10:32:53;4.93;;;2.83;;
462;SDS011;218;51.902;9.542;2022-07-29T10:35:35;7.30;;;3.30;;
462;SDS011;218;51.902;9.542;2022-07-29T10:38:27;3.23;;;2.93;;
462;SDS011;218;51.902;9.542;2022-07-29T10:41:10;3.70;;;2.77;;
462;SDS011;218;51.902;9.542;2022-07-29T10:43:55;2.63;;;2.40;;
462;SDS011;218;51.902;9.542;2022-07-29T10:46:39;3.23;;;2.77;;
462;SDS011;218;51.902;9.542;2022-07-29T10:49:27;7.17;;;5.83;;
462;SDS011;218;51.902;9.542;2022-07-29T10:52:04;7.10;;;6.40;;
462;SDS011;218;51.902;9.542;2022-07-29T10:54:37;4.90;;;4.10;;
462;SDS011;218;51.902;9.542;2022-07-29T10:57:18;3.73;;;3.40;;
462;SDS011;218;51.902;9.542;2022-07-29T11:02:57;3.90;;;2.33;;
462;SDS011;218;51.902;9.542;2022-07-29T11:05:25;3.67;;;3.37;;
462;SDS011;218;51.902;9.542;2022-07-29T11:10:49;7.50;;;3.00;;
462;SDS011;218;51.902;9.542;2022-07-29T11:16:15;3.40;;;3.10;;
462;SDS011;218;51.902;9.542;2022-07-29T11:21:47;2.90;;;2.70;;
462;SDS011;218;51.902;9.542;2022-07-29T11:24:17;4.80;;;2.90;;
462;SDS011;218;51.902;9.542;2022-07-29T11:27:08;3.47;;;2.80;;
462;SDS011;218;51.902;9.542;2022-07-29T11:29:39;4.40;;;2.53;;
462;SDS011;218;51.902;9.542;2022-07-29T11:32:14;3.20;;;3.00;;
462;SDS011;218;51.902;9.542;2022-07-29T11:34:45;3.00;;;2.80;;
462;SDS011;218;51.902;9.542;2022-07-29T11:37:14;3.53;;;3.07;;
462;SDS011;218;51.902;9.542;2022-07-29T11:39:46;2.77;;;2.53;;
462;SDS011;218;51.902;9.542;2022-07-29T11:42:43;6.53;;;3.43;;
462;SDS011;218;51.902;9.542;2022-07-29T11:45:20;5.00;;;2.90;;
462;SDS011;218;51.902;9.542;2022-07-29T11:47:50;4.80;;;3.10;;
462;SDS011;218;51.902;9.542;2022-07-29T11:50:26;5.13;;;3.40;;
462;SDS011;218;51.902;9.542;2022-07-29T11:52:56;5.00;;;2.87;;
462;SDS011;218;51.902;9.542;2022-07-29T11:55:24;5.27;;;2.93;;
462;SDS011;218;51.902;9.542;2022-07-29T11:57:52;5.60;;;3.13;;
462;SDS011;218;51.902;9.542;2022-07-29T12:00:26;3.93;;;3.30;;
462;SDS011;218;51.902;9.542;2022-07-29T12:02:55;3.90;;;3.47;;
462;SDS011;218;51.902;9.542;2022-07-29T12:05:30;3.83;;;3.37;;
462;SDS011;218;51.902;9.542;2022-07-29T12:08:05;3.87;;;3.40;;
462;SDS011;218;51.902;9.542;2022-07-29T12:10:34;4.83;;;4.30;;
462;SDS011;218;51.902;9.542;2022-07-29T12:13:02;4.40;;;3.90;;
462;SDS011;218;51.902;9.542;2022-07-29T12:15:31;4.63;;;4.33;;
462;SDS011;218;51.902;9.542;2022-07-29T12:17:58;4.60;;;4.20;;
462;SDS011;218;51.902;9.542;2022-07-29T12:20:35;5.87;;;4.30;;
462;SDS011;218;51.902;9.542;2022-07-29T12:23:04;5.17;;;4.77;;
462;SDS011;218;51.902;9.542;2022-07-29T12:25:33;4.70;;;4.30;;
462;SDS011;218;51.902;9.542;2022-07-29T12:28:02;4.90;;;4.47;;
462;SDS011;218;51.902;9.542;2022-07-29T12:30:40;5.73;;;4.70;;
462;SDS011;218;51.902;9.542;2022-07-29T12:33:10;5.87;;;4.73;;
462;SDS011;218;51.902;9.542;2022-07-29T12:35:42;5.30;;;4.80;;
462;SDS011;218;51.902;9.542;2022-07-29T12:38:11;5.70;;;5.20;;
462;SDS011;218;51.902;9.542;2022-07-29T12:40:39;5.53;;;4.80;;
462;SDS011;218;51.902;9.542;2022-07-29T12:43:10;5.80;;;5.17;;
462;SDS011;218;51.902;9.542;2022-07-29T12:45:41;6.53;;;5.03;;
462;SDS011;218;51.902;9.542;2022-07-29T12:48:09;6.03;;;4.93;;
462;SDS011;218;51.902;9.542;2022-07-29T12:50:47;5.40;;;4.90;;
462;SDS011;218;51.902;9.542;2022-07-29T12:53:19;6.00;;;5.50;;
462;SDS011;218;51.902;9.542;2022-07-29T12:55:46;5.83;;;5.10;;
462;SDS011;218;51.902;9.542;2022-07-29T12:58:26;7.20;;;5.07;;
462;SDS011;218;51.902;9.542;2022-07-29T13:01:02;5.20;;;4.80;;
462;SDS011;218;51.902;9.542;2022-07-29T13:03:41;5.73;;;5.23;;
462;SDS011;218;51.902;9.542;2022-07-29T13:06:28;7.30;;;5.00;;
462;SDS011;218;51.902;9.542;2022-07-29T13:09:07;6.07;;;5.57;;
462;SDS011;218;51.902;9.542;2022-07-29T13:11:37;6.00;;;5.50;;
462;SDS011;218;51.902;9.542;2022-07-29T13:14:06;6.37;;;5.90;;
462;SDS011;218;51.902;9.542;2022-07-29T13:16:36;7.80;;;6.20;;
462;SDS011;218;51.902;9.542;2022-07-29T13:19:32;5.90;;;5.40;;
462;SDS011;218;51.902;9.542;2022-07-29T13:22:00;6.20;;;5.67;;
462;SDS011;218;51.902;9.542;2022-07-29T13:24:28;5.73;;;5.33;;
462;SDS011;218;51.902;9.542;2022-07-29T13:26:55;6.20;;;5.70;;
462;SDS011;218;51.902;9.542;2022-07-29T13:29:22;6.20;;;5.60;;
462;SDS011;218;51.902;9.542;2022-07-29T13:31:52;6.47;;;6.07;;
462;SDS011;218;51.902;9.542;2022-07-29T13:34:20;6.37;;;5.73;;
462;SDS011;218;51.902;9.542;2022-07-29T13:36:49;6.67;;;6.13;;
462;SDS011;218;51.902;9.542;2022-07-29T13:39:16;5.47;;;5.07;;
462;SDS011;218;51.902;9.542;2022-07-29T13:41:43;6.03;;;5.53;;
462;SDS011;218;51.902;9.542;2022-07-29T13:44:10;6.17;;;5.60;;
462;SDS011;218;51.902;9.542;2022-07-29T13:46:37;6.20;;;5.70;;
462;SDS011;218;51.902;9.542;2022-07-29T13:49:08;6.57;;;6.03;;
462;SDS011;218;51.902;9.542;2022-07-29T13:51:36;5.97;;;5.40;;
462;SDS011;218;51.902;9.542;2022-07-29T13:54:03;8.50;;;6.23;;
462;SDS011;218;51.902;9.542;2022-07-29T13:56:30;9.97;;;6.13;;
462;SDS011;218;51.902;9.542;2022-07-29T13:58:57;10.60;;;5.87;;
462;SDS011;218;51.902;9.542;2022-07-29T14:01:25;6.73;;;6.23;;
462;SDS011;218;51.902;9.542;2022-07-29T14:03:52;6.03;;;5.43;;
462;SDS011;218;51.902;9.542;2022-07-29T14:06:23;6.07;;;5.67;;
462;SDS011;218;51.902;9.542;2022-07-29T14:08:50;5.83;;;5.43;;
462;SDS011;218;51.902;9.542;2022-07-29T14:11:17;6.00;;;5.50;;
462;SDS011;218;51.902;9.542;2022-07-29T14:13:45;6.20;;;5.70;;
462;SDS011;218;51.902;9.542;2022-07-29T14:16:12;6.70;;;6.20;;
462;SDS011;218;51.902;9.542;2022-07-29T14:18:40;6.53;;;5.93;;
462;SDS011;218;51.902;9.542;2022-07-29T14:21:07;7.40;;;6.77;;
462;SDS011;218;51.902;9.542;2022-07-29T14:23:36;6.50;;;5.90;;
462;SDS011;218;51.902;9.542;2022-07-29T14:26:03;6.53;;;5.90;;
462;SDS011;218;51.902;9.542;2022-07-29T14:28:30;5.93;;;5.50;;
462;SDS011;218;51.902;9.542;2022-07-29T14:30:57;5.67;;;5.17;;
462;SDS011;218;51.902;9.542;2022-07-29T14:33:24;6.53;;;6.03;;
462;SDS011;218;51.902;9.542;2022-07-29T14:35:51;6.13;;;5.70;;
462;SDS011;218;51.902;9.542;2022-07-29T14:38:19;5.50;;;5.10;;
462;SDS011;218;51.902;9.542;2022-07-29T14:40:47;5.57;;;5.07;;
462;SDS011;218;51.902;9.542;2022-07-29T14:43:14;6.37;;;5.87;;
462;SDS011;218;51.902;9.542;2022-07-29T14:45:46;6.20;;;5.70;;
462;SDS011;218;51.902;9.542;2022-07-29T14:48:47;6.33;;;5.83;;
462;SDS011;218;51.902;9.542;2022-07-29T14:51:15;6.57;;;6.03;;
462;SDS011;218;51.902;9.542;2022-07-29T14:53:44;6.63;;;6.03;;
462;SDS011;218;51.902;9.542;2022-07-29T14:56:13;7.43;;;6.73;;
462;SDS011;218;51.902;9.542;2022-07-29T14:58:40;6.43;;;6.00;;
462;SDS011;218;51.902;9.542;2022-07-29T15:01:07;6.40;;;5.87;;
462;SDS011;218;51.902;9.542;2022-07-29T15:03:34;5.83;;;5.33;;
462;SDS011;218;51.902;9.542;2022-07-29T15:06:01;6.23;;;5.83;;
462;SDS011;218;51.902;9.542;2022-07-29T15:08:28;6.33;;;5.83;;
462;SDS011;218;51.902;9.542;2022-07-29T15:10:57;6.60;;;6.17;;
462;SDS011;218;51.902;9.542;2022-07-29T15:13:27;8.40;;;6.47;;
462;SDS011;218;51.902;9.542;2022-07-29T15:15:57;7.80;;;6.67;;
462;SDS011;218;51.902;9.542;2022-07-29T15:18:24;8.80;;;6.67;;
462;SDS011;218;51.902;9.542;2022-07-29T15:20:51;6.70;;;6.20;;
462;SDS011;218;51.902;9.542;2022-07-29T15:23:25;6.30;;;5.80;;
462;SDS011;218;51.902;9.542;2022-07-29T15:25:52;7.70;;;7.20;;
462;SDS011;218;51.902;9.542;2022-07-29T15:28:19;7.53;;;6.93;;
462;SDS011;218;51.902;9.542;2022-07-29T15:30:48;6.83;;;6.33;;
462;SDS011;218;51.902;9.542;2022-07-29T15:33:15;7.60;;;7.00;;
462;SDS011;218;51.902;9.542;2022-07-29T15:35:43;6.90;;;6.40;;
462;SDS011;218;51.902;9.542;2022-07-29T15:38:10;7.90;;;7.17;;
462;SDS011;218;51.902;9.542;2022-07-29T15:40:37;7.33;;;6.53;;
462;SDS011;218;51.902;9.542;2022-07-29T15:43:09;7.33;;;6.93;;
462;SDS011;218;51.902;9.542;2022-07-29T15:45:37;7.57;;;6.90;;
462;SDS011;218;51.902;9.542;2022-07-29T15:48:07;7.87;;;7.17;;
462;SDS011;218;51.902;9.542;2022-07-29T15:50:35;7.20;;;6.63;;
462;SDS011;218;51.902;9.542;2022-07-29T15:53:02;7.77;;;7.07;;
462;SDS011;218;51.902;9.542;2022-07-29T15:55:30;6.40;;;6.03;;
462;SDS011;218;51.902;9.542;2022-07-29T15:57:57;6.97;;;6.37;;
462;SDS011;218;51.902;9.542;2022-07-29T16:00:27;6.53;;;5.93;;
462;SDS011;218;51.902;9.542;2022-07-29T16:02:54;7.00;;;6.40;;
462;SDS011;218;51.902;9.542;2022-07-29T16:05:22;6.30;;;5.80;;
462;SDS011;218;51.902;9.542;2022-07-29T16:07:50;7.37;;;6.93;;
462;SDS011;218;51.902;9.542;2022-07-29T16:10:17;7.50;;;6.80;;
462;SDS011;218;51.902;9.542;2022-07-29T16:12:44;7.27;;;6.70;;
462;SDS011;218;51.902;9.542;2022-07-29T16:15:11;6.60;;;6.10;;